sensor_id;sensor_type;location;lat;lon;timestamp;temperature;humidity
74940;HTU21D;63505;45.226;37.908;2024-01-11T00:00:31;-0.10;83.26
74940;HTU21D;63505;45.226;37.908;2024-01-11T00:02:57;-0.11;83.26
74940;HTU21D;63505;45.226;37.908;2024-01-11T00:05:22;-0.11;83.29
74940;HTU21D;63505;45.226;37.908;2024-01-11T00:07:48;-0.09;83.36
74940;HTU21D;63505;45.226;37.908;2024-01-11T00:10:15;-0.08;83.36
74940;HTU21D;63505;45.226;37.908;2024-01-11T00:12:42;-0.07;83.31
74940;HTU21D;63505;45.226;37.908;2024-01-11T00:15:08;-0.06;83.32
74940;HTU21D;63505;45.226;37.908;2024-01-11T00:17:34;-0.07;83.36
74940;HTU21D;63505;45.226;37.908;2024-01-11T00:20:00;-0.05;83.30
74940;HTU21D;63505;45.226;37.908;2024-01-11T00:22:26;-0.06;83.35
74940;HTU21D;63505;45.226;37.908;2024-01-11T00:24:52;-0.06;83.29
74940;HTU21D;63505;45.226;37.908;2024-01-11T00:27:19;-0.07;83.36
74940;HTU21D;63505;45.226;37.908;2024-01-11T00:29:45;-0.07;83.44
74940;HTU21D;63505;45.226;37.908;2024-01-11T00:32:11;-0.01;83.45
74940;HTU21D;63505;45.226;37.908;2024-01-11T00:34:37;0.02;83.39
74940;HTU21D;63505;45.226;37.908;2024-01-11T00:37:04;0.04;83.30
74940;HTU21D;63505;45.226;37.908;2024-01-11T00:39:29;0.03;83.36
74940;HTU21D;63505;45.226;37.908;2024-01-11T00:41:55;0.08;83.39
74940;HTU21D;63505;45.226;37.908;2024-01-11T00:44:21;0.09;83.31
74940;HTU21D;63505;45.226;37.908;2024-01-11T00:46:47;0.15;83.30
74940;HTU21D;63505;45.226;37.908;2024-01-11T00:49:13;0.19;83.25
74940;HTU21D;63505;45.226;37.908;2024-01-11T00:51:39;0.20;83.18
74940;HTU21D;63505;45.226;37.908;2024-01-11T00:54:05;0.23;83.05
74940;HTU21D;63505;45.226;37.908;2024-01-11T00:56:31;0.18;83.04
74940;HTU21D;63505;45.226;37.908;2024-01-11T00:58:56;0.19;83.08
74940;HTU21D;63505;45.226;37.908;2024-01-11T01:01:22;0.16;83.07
74940;HTU21D;63505;45.226;37.908;2024-01-11T01:03:48;0.18;83.17
74940;HTU21D;63505;45.226;37.908;2024-01-11T01:06:14;0.16;83.08
74940;HTU21D;63505;45.226;37.908;2024-01-11T01:08:40;0.18;83.11
74940;HTU21D;63505;45.226;37.908;2024-01-11T01:11:06;0.20;83.04
74940;HTU21D;63505;45.226;37.908;2024-01-11T01:13:32;0.21;83.02
74940;HTU21D;63505;45.226;37.908;2024-01-11T01:15:58;0.22;82.99
74940;HTU21D;63505;45.226;37.908;2024-01-11T01:18:23;0.20;82.90
74940;HTU21D;63505;45.226;37.908;2024-01-11T01:20:50;0.15;82.93
74940;HTU21D;63505;45.226;37.908;2024-01-11T01:23:16;0.17;82.94
74940;HTU21D;63505;45.226;37.908;2024-01-11T01:25:42;0.19;82.94
74940;HTU21D;63505;45.226;37.908;2024-01-11T01:28:07;0.22;82.87
74940;HTU21D;63505;45.226;37.908;2024-01-11T01:30:33;0.21;82.85
74940;HTU21D;63505;45.226;37.908;2024-01-11T01:32:59;0.21;82.80
74940;HTU21D;63505;45.226;37.908;2024-01-11T01:35:25;0.22;82.79
74940;HTU21D;63505;45.226;37.908;2024-01-11T01:37:51;0.20;82.74
74940;HTU21D;63505;45.226;37.908;2024-01-11T01:40:17;0.17;82.76
74940;HTU21D;63505;45.226;37.908;2024-01-11T01:42:43;0.18;82.82
74940;HTU21D;63505;45.226;37.908;2024-01-11T01:45:10;0.21;82.80
74940;HTU21D;63505;45.226;37.908;2024-01-11T01:47:37;0.24;82.76
74940;HTU21D;63505;45.226;37.908;2024-01-11T01:50:04;0.22;82.65
74940;HTU21D;63505;45.226;37.908;2024-01-11T01:52:30;0.20;82.75
74940;HTU21D;63505;45.226;37.908;2024-01-11T01:54:57;0.21;82.70
74940;HTU21D;63505;45.226;37.908;2024-01-11T01:57:24;0.17;82.70
74940;HTU21D;63505;45.226;37.908;2024-01-11T01:59:52;0.16;82.71
74940;HTU21D;63505;45.226;37.908;2024-01-11T02:02:20;0.18;82.78
74940;HTU21D;63505;45.226;37.908;2024-01-11T02:04:47;0.17;82.74
74940;HTU21D;63505;45.226;37.908;2024-01-11T02:07:13;0.14;82.72
74940;HTU21D;63505;45.226;37.908;2024-01-11T02:09:40;0.10;82.78
74940;HTU21D;63505;45.226;37.908;2024-01-11T02:12:06;0.07;82.72
74940;HTU21D;63505;45.226;37.908;2024-01-11T02:14:39;0.04;82.81
74940;HTU21D;63505;45.226;37.908;2024-01-11T02:17:05;0.06;82.83
74940;HTU21D;63505;45.226;37.908;2024-01-11T02:19:32;0.04;82.86
74940;HTU21D;63505;45.226;37.908;2024-01-11T02:22:12;0.04;82.82
74940;HTU21D;63505;45.226;37.908;2024-01-11T02:24:39;0.06;82.85
74940;HTU21D;63505;45.226;37.908;2024-01-11T02:27:05;0.06;82.80
74940;HTU21D;63505;45.226;37.908;2024-01-11T02:29:32;0.06;82.84
74940;HTU21D;63505;45.226;37.908;2024-01-11T02:31:59;0.05;82.80
74940;HTU21D;63505;45.226;37.908;2024-01-11T02:34:27;0.07;82.81
74940;HTU21D;63505;45.226;37.908;2024-01-11T02:36:56;0.10;82.83
74940;HTU21D;63505;45.226;37.908;2024-01-11T02:39:23;0.14;82.84
74940;HTU21D;63505;45.226;37.908;2024-01-11T02:41:52;0.17;82.80
74940;HTU21D;63505;45.226;37.908;2024-01-11T02:44:18;0.19;82.75
74940;HTU21D;63505;45.226;37.908;2024-01-11T02:46:44;0.13;82.73
74940;HTU21D;63505;45.226;37.908;2024-01-11T02:49:10;0.17;82.81
74940;HTU21D;63505;45.226;37.908;2024-01-11T02:51:36;0.19;82.79
74940;HTU21D;63505;45.226;37.908;2024-01-11T02:54:02;0.22;82.76
74940;HTU21D;63505;45.226;37.908;2024-01-11T02:56:28;0.22;82.75
74940;HTU21D;63505;45.226;37.908;2024-01-11T02:58:54;0.24;82.74
74940;HTU21D;63505;45.226;37.908;2024-01-11T03:01:19;0.27;82.74
74940;HTU21D;63505;45.226;37.908;2024-01-11T03:03:45;0.28;82.75
74940;HTU21D;63505;45.226;37.908;2024-01-11T03:06:12;0.30;82.71
74940;HTU21D;63505;45.226;37.908;2024-01-11T03:08:39;0.31;82.73
74940;HTU21D;63505;45.226;37.908;2024-01-11T03:11:05;0.33;82.71
74940;HTU21D;63505;45.226;37.908;2024-01-11T03:13:31;0.34;82.71
74940;HTU21D;63505;45.226;37.908;2024-01-11T03:15:57;0.36;82.67
74940;HTU21D;63505;45.226;37.908;2024-01-11T03:18:23;0.37;82.68
74940;HTU21D;63505;45.226;37.908;2024-01-11T03:20:49;0.35;82.65
74940;HTU21D;63505;45.226;37.908;2024-01-11T03:23:15;0.31;82.62
74940;HTU21D;63505;45.226;37.908;2024-01-11T03:25:41;0.24;82.65
74940;HTU21D;63505;45.226;37.908;2024-01-11T03:28:06;0.23;82.78
74940;HTU21D;63505;45.226;37.908;2024-01-11T03:30:32;0.25;82.75
74940;HTU21D;63505;45.226;37.908;2024-01-11T03:32:58;0.23;82.77
74940;HTU21D;63505;45.226;37.908;2024-01-11T03:35:24;0.24;82.78
74940;HTU21D;63505;45.226;37.908;2024-01-11T03:37:50;0.20;82.77
74940;HTU21D;63505;45.226;37.908;2024-01-11T03:40:17;0.20;82.76
74940;HTU21D;63505;45.226;37.908;2024-01-11T03:42:42;0.20;82.78
74940;HTU21D;63505;45.226;37.908;2024-01-11T03:45:09;0.20;82.79
74940;HTU21D;63505;45.226;37.908;2024-01-11T03:47:35;0.22;82.80
74940;HTU21D;63505;45.226;37.908;2024-01-11T03:50:01;0.22;82.78
74940;HTU21D;63505;45.226;37.908;2024-01-11T03:52:27;0.20;82.76
74940;HTU21D;63505;45.226;37.908;2024-01-11T03:54:53;0.20;82.79
74940;HTU21D;63505;45.226;37.908;2024-01-11T03:57:19;0.24;82.80
74940;HTU21D;63505;45.226;37.908;2024-01-11T03:59:44;0.25;82.71
74940;HTU21D;63505;45.226;37.908;2024-01-11T04:02:10;0.23;82.68
74940;HTU21D;63505;45.226;37.908;2024-01-11T04:04:36;0.21;82.77
74940;HTU21D;63505;45.226;37.908;2024-01-11T04:07:02;0.28;82.83
74940;HTU21D;63505;45.226;37.908;2024-01-11T04:09:29;0.24;82.78
74940;HTU21D;63505;45.226;37.908;2024-01-11T04:11:55;0.23;82.91
74940;HTU21D;63505;45.226;37.908;2024-01-11T04:14:21;0.23;82.84
74940;HTU21D;63505;45.226;37.908;2024-01-11T04:16:46;0.21;82.87
74940;HTU21D;63505;45.226;37.908;2024-01-11T04:19:12;0.23;82.89
74940;HTU21D;63505;45.226;37.908;2024-01-11T04:21:38;0.24;82.88
74940;HTU21D;63505;45.226;37.908;2024-01-11T04:24:05;0.25;82.84
74940;HTU21D;63505;45.226;37.908;2024-01-11T04:26:33;0.24;82.84
74940;HTU21D;63505;45.226;37.908;2024-01-11T04:28:59;0.25;82.87
74940;HTU21D;63505;45.226;37.908;2024-01-11T04:31:26;0.24;82.83
74940;HTU21D;63505;45.226;37.908;2024-01-11T04:33:52;0.31;82.92
74940;HTU21D;63505;45.226;37.908;2024-01-11T04:36:18;0.35;82.82
74940;HTU21D;63505;45.226;37.908;2024-01-11T04:38:44;0.37;82.76
74940;HTU21D;63505;45.226;37.908;2024-01-11T04:41:11;0.32;82.68
74940;HTU21D;63505;45.226;37.908;2024-01-11T04:43:38;0.31;82.71
74940;HTU21D;63505;45.226;37.908;2024-01-11T04:46:18;0.28;82.72
74940;HTU21D;63505;45.226;37.908;2024-01-11T04:48:45;0.28;82.74
74940;HTU21D;63505;45.226;37.908;2024-01-11T04:51:12;0.25;82.77
74940;HTU21D;63505;45.226;37.908;2024-01-11T04:53:39;0.29;82.77
74940;HTU21D;63505;45.226;37.908;2024-01-11T04:56:07;0.30;82.80
74940;HTU21D;63505;45.226;37.908;2024-01-11T04:58:33;0.35;82.79
74940;HTU21D;63505;45.226;37.908;2024-01-11T05:01:00;0.34;82.77
74940;HTU21D;63505;45.226;37.908;2024-01-11T05:03:25;0.39;82.81
74940;HTU21D;63505;45.226;37.908;2024-01-11T05:05:51;0.43;82.75
74940;HTU21D;63505;45.226;37.908;2024-01-11T05:08:17;0.46;82.75
74940;HTU21D;63505;45.226;37.908;2024-01-11T05:10:43;0.50;82.73
74940;HTU21D;63505;45.226;37.908;2024-01-11T05:13:10;0.50;82.64
74940;HTU21D;63505;45.226;37.908;2024-01-11T05:15:36;0.52;82.65
74940;HTU21D;63505;45.226;37.908;2024-01-11T05:18:02;0.53;82.73
74940;HTU21D;63505;45.226;37.908;2024-01-11T05:20:28;0.57;82.71
74940;HTU21D;63505;45.226;37.908;2024-01-11T05:22:55;0.60;82.75
74940;HTU21D;63505;45.226;37.908;2024-01-11T05:25:21;0.63;82.70
74940;HTU21D;63505;45.226;37.908;2024-01-11T05:27:46;0.65;82.70
74940;HTU21D;63505;45.226;37.908;2024-01-11T05:30:13;0.66;82.66
74940;HTU21D;63505;45.226;37.908;2024-01-11T05:32:39;0.64;82.71
74940;HTU21D;63505;45.226;37.908;2024-01-11T05:35:04;0.66;82.75
74940;HTU21D;63505;45.226;37.908;2024-01-11T05:37:30;0.68;82.77
74940;HTU21D;63505;45.226;37.908;2024-01-11T05:39:56;0.68;82.71
74940;HTU21D;63505;45.226;37.908;2024-01-11T05:42:23;0.67;82.77
74940;HTU21D;63505;45.226;37.908;2024-01-11T05:44:51;0.69;82.78
74940;HTU21D;63505;45.226;37.908;2024-01-11T05:47:17;0.69;82.82
74940;HTU21D;63505;45.226;37.908;2024-01-11T05:49:43;0.73;82.88
74940;HTU21D;63505;45.226;37.908;2024-01-11T05:52:09;0.79;82.94
74940;HTU21D;63505;45.226;37.908;2024-01-11T05:54:34;0.84;82.89
74940;HTU21D;63505;45.226;37.908;2024-01-11T05:57:00;0.87;82.82
74940;HTU21D;63505;45.226;37.908;2024-01-11T05:59:26;0.86;82.86
74940;HTU21D;63505;45.226;37.908;2024-01-11T06:01:52;0.84;82.83
74940;HTU21D;63505;45.226;37.908;2024-01-11T06:04:18;0.86;82.97
74940;HTU21D;63505;45.226;37.908;2024-01-11T06:07:02;0.92;83.03
74940;HTU21D;63505;45.226;37.908;2024-01-11T06:09:28;0.97;83.02
74940;HTU21D;63505;45.226;37.908;2024-01-11T06:11:54;1.01;82.94
74940;HTU21D;63505;45.226;37.908;2024-01-11T06:14:20;1.04;82.87
74940;HTU21D;63505;45.226;37.908;2024-01-11T06:16:46;1.02;82.90
74940;HTU21D;63505;45.226;37.908;2024-01-11T06:19:12;1.01;82.98
74940;HTU21D;63505;45.226;37.908;2024-01-11T06:21:38;1.04;83.11
74940;HTU21D;63505;45.226;37.908;2024-01-11T06:24:03;1.08;83.15
74940;HTU21D;63505;45.226;37.908;2024-01-11T06:26:29;1.13;83.14
74940;HTU21D;63505;45.226;37.908;2024-01-11T06:28:56;1.17;83.14
74940;HTU21D;63505;45.226;37.908;2024-01-11T06:31:21;1.21;83.20
74940;HTU21D;63505;45.226;37.908;2024-01-11T06:33:47;1.27;83.12
74940;HTU21D;63505;45.226;37.908;2024-01-11T06:36:13;1.28;83.04
74940;HTU21D;63505;45.226;37.908;2024-01-11T06:38:39;1.32;83.12
74940;HTU21D;63505;45.226;37.908;2024-01-11T06:41:05;1.29;82.97
74940;HTU21D;63505;45.226;37.908;2024-01-11T06:43:31;1.28;82.97
74940;HTU21D;63505;45.226;37.908;2024-01-11T06:46:01;1.21;83.04
74940;HTU21D;63505;45.226;37.908;2024-01-11T06:48:28;1.19;83.26
74940;HTU21D;63505;45.226;37.908;2024-01-11T06:50:54;1.16;83.36
74940;HTU21D;63505;45.226;37.908;2024-01-11T06:53:20;1.20;83.54
74940;HTU21D;63505;45.226;37.908;2024-01-11T06:55:46;1.20;83.55
74940;HTU21D;63505;45.226;37.908;2024-01-11T06:58:13;1.25;83.55
74940;HTU21D;63505;45.226;37.908;2024-01-11T07:00:39;1.32;83.65
74940;HTU21D;63505;45.226;37.908;2024-01-11T07:03:11;1.42;83.64
74940;HTU21D;63505;45.226;37.908;2024-01-11T07:05:37;1.53;83.50
74940;HTU21D;63505;45.226;37.908;2024-01-11T07:08:03;1.67;83.39
74940;HTU21D;63505;45.226;37.908;2024-01-11T07:10:29;1.79;83.26
74940;HTU21D;63505;45.226;37.908;2024-01-11T07:12:55;1.93;83.23
74940;HTU21D;63505;45.226;37.908;2024-01-11T07:15:21;2.22;83.13
74940;HTU21D;63505;45.226;37.908;2024-01-11T07:17:48;2.43;82.73
74940;HTU21D;63505;45.226;37.908;2024-01-11T07:20:14;2.58;82.37
74940;HTU21D;63505;45.226;37.908;2024-01-11T07:22:42;2.57;82.03
74940;HTU21D;63505;45.226;37.908;2024-01-11T07:25:08;2.54;82.19
74940;HTU21D;63505;45.226;37.908;2024-01-11T07:27:34;2.56;82.26
74940;HTU21D;63505;45.226;37.908;2024-01-11T07:30:00;2.60;82.46
74940;HTU21D;63505;45.226;37.908;2024-01-11T07:32:28;2.81;82.58
74940;HTU21D;63505;45.226;37.908;2024-01-11T07:34:53;2.96;82.34
74940;HTU21D;63505;45.226;37.908;2024-01-11T07:37:19;3.10;82.33
74940;HTU21D;63505;45.226;37.908;2024-01-11T07:39:45;3.18;82.03
74940;HTU21D;63505;45.226;37.908;2024-01-11T07:42:12;3.17;81.88
74940;HTU21D;63505;45.226;37.908;2024-01-11T07:44:38;3.19;81.98
74940;HTU21D;63505;45.226;37.908;2024-01-11T07:47:04;3.27;81.94
74940;HTU21D;63505;45.226;37.908;2024-01-11T07:49:30;3.36;81.96
74940;HTU21D;63505;45.226;37.908;2024-01-11T07:51:56;3.43;81.76
74940;HTU21D;63505;45.226;37.908;2024-01-11T07:54:22;3.41;81.56
74940;HTU21D;63505;45.226;37.908;2024-01-11T07:56:48;3.23;81.55
74940;HTU21D;63505;45.226;37.908;2024-01-11T07:59:13;3.16;81.96
74940;HTU21D;63505;45.226;37.908;2024-01-11T08:01:40;3.14;82.04
74940;HTU21D;63505;45.226;37.908;2024-01-11T08:04:06;3.14;82.13
74940;HTU21D;63505;45.226;37.908;2024-01-11T08:06:32;3.12;82.18
74940;HTU21D;63505;45.226;37.908;2024-01-11T08:08:58;3.05;82.30
74940;HTU21D;63505;45.226;37.908;2024-01-11T08:11:23;2.99;82.34
74940;HTU21D;63505;45.226;37.908;2024-01-11T08:13:49;2.94;82.44
74940;HTU21D;63505;45.226;37.908;2024-01-11T08:16:18;2.88;82.55
74940;HTU21D;63505;45.226;37.908;2024-01-11T08:18:44;2.76;82.50
74940;HTU21D;63505;45.226;37.908;2024-01-11T08:21:11;2.64;82.65
74940;HTU21D;63505;45.226;37.908;2024-01-11T08:23:40;2.57;82.80
74940;HTU21D;63505;45.226;37.908;2024-01-11T08:26:11;2.55;82.89
74940;HTU21D;63505;45.226;37.908;2024-01-11T08:28:38;2.52;82.87
74940;HTU21D;63505;45.226;37.908;2024-01-11T08:31:04;2.52;82.92
74940;HTU21D;63505;45.226;37.908;2024-01-11T08:33:30;2.52;82.83
74940;HTU21D;63505;45.226;37.908;2024-01-11T08:35:57;2.51;82.82
74940;HTU21D;63505;45.226;37.908;2024-01-11T08:38:23;2.50;82.84
74940;HTU21D;63505;45.226;37.908;2024-01-11T08:40:50;2.53;82.84
74940;HTU21D;63505;45.226;37.908;2024-01-11T08:43:16;2.60;82.75
74940;HTU21D;63505;45.226;37.908;2024-01-11T08:45:42;2.64;82.65
74940;HTU21D;63505;45.226;37.908;2024-01-11T08:48:13;2.67;82.63
74940;HTU21D;63505;45.226;37.908;2024-01-11T08:50:39;2.69;82.58
74940;HTU21D;63505;45.226;37.908;2024-01-11T08:53:05;2.70;82.55
74940;HTU21D;63505;45.226;37.908;2024-01-11T08:55:32;2.70;82.53
74940;HTU21D;63505;45.226;37.908;2024-01-11T08:57:58;2.71;82.52
74940;HTU21D;63505;45.226;37.908;2024-01-11T09:00:26;2.72;82.48
74940;HTU21D;63505;45.226;37.908;2024-01-11T09:02:51;2.71;82.49
74940;HTU21D;63505;45.226;37.908;2024-01-11T09:05:17;2.72;82.46
74940;HTU21D;63505;45.226;37.908;2024-01-11T09:07:43;2.71;82.46
74940;HTU21D;63505;45.226;37.908;2024-01-11T09:10:09;2.71;82.48
74940;HTU21D;63505;45.226;37.908;2024-01-11T09:12:36;2.71;82.53
74940;HTU21D;63505;45.226;37.908;2024-01-11T09:15:03;2.72;82.48
74940;HTU21D;63505;45.226;37.908;2024-01-11T09:17:28;2.72;82.51
74940;HTU21D;63505;45.226;37.908;2024-01-11T09:19:54;2.72;82.52
74940;HTU21D;63505;45.226;37.908;2024-01-11T09:22:20;2.71;82.52
74940;HTU21D;63505;45.226;37.908;2024-01-11T09:24:46;2.68;82.49
74940;HTU21D;63505;45.226;37.908;2024-01-11T09:27:12;2.66;82.49
74940;HTU21D;63505;45.226;37.908;2024-01-11T09:29:47;2.66;82.53
74940;HTU21D;63505;45.226;37.908;2024-01-11T09:32:13;2.65;82.56
74940;HTU21D;63505;45.226;37.908;2024-01-11T09:34:39;2.60;82.47
74940;HTU21D;63505;45.226;37.908;2024-01-11T09:37:05;2.54;82.55
74940;HTU21D;63505;45.226;37.908;2024-01-11T09:39:31;2.50;82.62
74940;HTU21D;63505;45.226;37.908;2024-01-11T09:42:07;2.50;82.65
74940;HTU21D;63505;45.226;37.908;2024-01-11T09:44:37;2.49;82.62
74940;HTU21D;63505;45.226;37.908;2024-01-11T09:47:06;2.45;82.62
74940;HTU21D;63505;45.226;37.908;2024-01-11T09:49:33;2.46;82.63
74940;HTU21D;63505;45.226;37.908;2024-01-11T09:52:02;2.44;82.62
74940;HTU21D;63505;45.226;37.908;2024-01-11T09:54:28;2.45;82.58
74940;HTU21D;63505;45.226;37.908;2024-01-11T09:56:54;2.44;82.60
74940;HTU21D;63505;45.226;37.908;2024-01-11T09:59:24;2.42;82.57
74940;HTU21D;63505;45.226;37.908;2024-01-11T10:01:51;2.38;82.55
74940;HTU21D;63505;45.226;37.908;2024-01-11T10:04:18;2.35;82.62
74940;HTU21D;63505;45.226;37.908;2024-01-11T10:06:45;2.36;82.62
74940;HTU21D;63505;45.226;37.908;2024-01-11T10:09:11;2.35;82.64
74940;HTU21D;63505;45.226;37.908;2024-01-11T10:11:38;2.35;82.58
74940;HTU21D;63505;45.226;37.908;2024-01-11T10:14:04;2.35;82.62
74940;HTU21D;63505;45.226;37.908;2024-01-11T10:16:31;2.36;82.61
74940;HTU21D;63505;45.226;37.908;2024-01-11T10:18:57;2.37;82.59
74940;HTU21D;63505;45.226;37.908;2024-01-11T10:21:23;2.34;82.58
74940;HTU21D;63505;45.226;37.908;2024-01-11T10:23:50;2.31;82.58
74940;HTU21D;63505;45.226;37.908;2024-01-11T10:26:16;2.29;82.64
74940;HTU21D;63505;45.226;37.908;2024-01-11T10:28:46;2.25;82.70
74940;HTU21D;63505;45.226;37.908;2024-01-11T10:31:13;2.22;82.71
74940;HTU21D;63505;45.226;37.908;2024-01-11T10:33:45;2.17;82.75
74940;HTU21D;63505;45.226;37.908;2024-01-11T10:36:11;2.15;82.83
74940;HTU21D;63505;45.226;37.908;2024-01-11T10:38:38;2.14;82.88
74940;HTU21D;63505;45.226;37.908;2024-01-11T10:41:05;2.15;82.94
74940;HTU21D;63505;45.226;37.908;2024-01-11T10:43:32;2.16;82.93
74940;HTU21D;63505;45.226;37.908;2024-01-11T10:46:01;2.14;82.87
74940;HTU21D;63505;45.226;37.908;2024-01-11T10:48:36;2.12;82.91
74940;HTU21D;63505;45.226;37.908;2024-01-11T10:51:05;2.14;82.91
74940;HTU21D;63505;45.226;37.908;2024-01-11T10:53:45;2.15;82.85
74940;HTU21D;63505;45.226;37.908;2024-01-11T10:56:12;2.14;82.83
74940;HTU21D;63505;45.226;37.908;2024-01-11T10:58:40;2.13;82.81
74940;HTU21D;63505;45.226;37.908;2024-01-11T11:01:10;2.10;82.84
74940;HTU21D;63505;45.226;37.908;2024-01-11T11:03:39;2.11;82.83
74940;HTU21D;63505;45.226;37.908;2024-01-11T11:06:08;2.08;82.89
74940;HTU21D;63505;45.226;37.908;2024-01-11T11:08:36;2.10;82.91
74940;HTU21D;63505;45.226;37.908;2024-01-11T11:11:04;2.10;82.95
74940;HTU21D;63505;45.226;37.908;2024-01-11T11:13:32;2.12;82.97
74940;HTU21D;63505;45.226;37.908;2024-01-11T11:15:58;2.16;82.94
74940;HTU21D;63505;45.226;37.908;2024-01-11T11:18:24;2.19;82.94
74940;HTU21D;63505;45.226;37.908;2024-01-11T11:20:51;2.20;82.84
74940;HTU21D;63505;45.226;37.908;2024-01-11T11:23:18;2.17;82.83
74940;HTU21D;63505;45.226;37.908;2024-01-11T11:25:48;2.13;82.90
74940;HTU21D;63505;45.226;37.908;2024-01-11T11:28:16;2.10;82.96
74940;HTU21D;63505;45.226;37.908;2024-01-11T11:30:44;2.11;82.98
74940;HTU21D;63505;45.226;37.908;2024-01-11T11:33:15;2.10;83.06
74940;HTU21D;63505;45.226;37.908;2024-01-11T11:35:43;2.10;83.09
74940;HTU21D;63505;45.226;37.908;2024-01-11T11:38:17;2.12;83.11
74940;HTU21D;63505;45.226;37.908;2024-01-11T11:40:46;2.12;83.07
74940;HTU21D;63505;45.226;37.908;2024-01-11T11:43:12;2.11;83.08
74940;HTU21D;63505;45.226;37.908;2024-01-11T11:45:40;2.11;83.10
74940;HTU21D;63505;45.226;37.908;2024-01-11T11:51:15;2.06;83.07
74940;HTU21D;63505;45.226;37.908;2024-01-11T11:53:42;2.02;83.16
74940;HTU21D;63505;45.226;37.908;2024-01-11T11:56:09;2.01;83.22
74940;HTU21D;63505;45.226;37.908;2024-01-11T11:58:36;2.05;83.23
74940;HTU21D;63505;45.226;37.908;2024-01-11T12:01:03;2.07;83.16
74940;HTU21D;63505;45.226;37.908;2024-01-11T12:03:37;2.02;83.16
74940;HTU21D;63505;45.226;37.908;2024-01-11T12:06:04;2.02;83.19
74940;HTU21D;63505;45.226;37.908;2024-01-11T12:08:31;2.00;83.16
74940;HTU21D;63505;45.226;37.908;2024-01-11T12:10:57;2.02;83.19
74940;HTU21D;63505;45.226;37.908;2024-01-11T12:13:24;2.02;83.20
74940;HTU21D;63505;45.226;37.908;2024-01-11T12:15:50;2.06;83.23
74940;HTU21D;63505;45.226;37.908;2024-01-11T12:18:17;2.11;83.17
74940;HTU21D;63505;45.226;37.908;2024-01-11T12:20:44;2.13;83.05
74940;HTU21D;63505;45.226;37.908;2024-01-11T12:23:10;2.16;83.11
74940;HTU21D;63505;45.226;37.908;2024-01-11T12:25:36;2.20;83.09
74940;HTU21D;63505;45.226;37.908;2024-01-11T12:28:03;2.24;83.07
74940;HTU21D;63505;45.226;37.908;2024-01-11T12:30:28;2.27;83.01
74940;HTU21D;63505;45.226;37.908;2024-01-11T12:32:58;2.29;82.95
74940;HTU21D;63505;45.226;37.908;2024-01-11T12:35:24;2.29;82.93
74940;HTU21D;63505;45.226;37.908;2024-01-11T12:38:08;2.28;82.93
74940;HTU21D;63505;45.226;37.908;2024-01-11T12:40:37;2.27;82.92
74940;HTU21D;63505;45.226;37.908;2024-01-11T12:43:04;2.25;82.94
74940;HTU21D;63505;45.226;37.908;2024-01-11T12:45:31;2.23;83.02
74940;HTU21D;63505;45.226;37.908;2024-01-11T12:48:01;2.25;83.09
74940;HTU21D;63505;45.226;37.908;2024-01-11T12:50:30;2.27;83.08
74940;HTU21D;63505;45.226;37.908;2024-01-11T12:53:09;2.23;83.03
74940;HTU21D;63505;45.226;37.908;2024-01-11T12:55:37;2.16;83.07
74940;HTU21D;63505;45.226;37.908;2024-01-11T12:58:07;2.13;83.16
74940;HTU21D;63505;45.226;37.908;2024-01-11T13:00:38;2.13;83.22
74940;HTU21D;63505;45.226;37.908;2024-01-11T13:03:04;2.11;83.18
74940;HTU21D;63505;45.226;37.908;2024-01-11T13:05:31;2.09;83.23
74940;HTU21D;63505;45.226;37.908;2024-01-11T13:08:18;2.08;83.25
74940;HTU21D;63505;45.226;37.908;2024-01-11T13:10:44;2.12;83.32
74940;HTU21D;63505;45.226;37.908;2024-01-11T13:13:11;2.11;83.22
74940;HTU21D;63505;45.226;37.908;2024-01-11T13:15:37;2.10;83.27
74940;HTU21D;63505;45.226;37.908;2024-01-11T13:18:03;2.13;83.29
74940;HTU21D;63505;45.226;37.908;2024-01-11T13:20:30;2.11;83.32
74940;HTU21D;63505;45.226;37.908;2024-01-11T13:23:16;2.13;83.35
74940;HTU21D;63505;45.226;37.908;2024-01-11T13:25:44;2.15;83.35
74940;HTU21D;63505;45.226;37.908;2024-01-11T13:28:10;2.15;83.39
74940;HTU21D;63505;45.226;37.908;2024-01-11T13:30:43;2.16;83.39
74940;HTU21D;63505;45.226;37.908;2024-01-11T13:33:11;2.15;83.45
74940;HTU21D;63505;45.226;37.908;2024-01-11T13:35:40;2.19;83.55
74940;HTU21D;63505;45.226;37.908;2024-01-11T13:38:06;2.21;83.59
74940;HTU21D;63505;45.226;37.908;2024-01-11T13:40:32;2.22;83.59
74940;HTU21D;63505;45.226;37.908;2024-01-11T13:42:58;2.26;83.62
74940;HTU21D;63505;45.226;37.908;2024-01-11T13:45:25;2.30;83.59
74940;HTU21D;63505;45.226;37.908;2024-01-11T13:47:52;2.34;83.61
74940;HTU21D;63505;45.226;37.908;2024-01-11T13:50:22;2.40;83.62
74940;HTU21D;63505;45.226;37.908;2024-01-11T13:52:49;2.45;83.59
74940;HTU21D;63505;45.226;37.908;2024-01-11T13:55:16;2.51;83.55
74940;HTU21D;63505;45.226;37.908;2024-01-11T13:57:47;2.54;83.52
74940;HTU21D;63505;45.226;37.908;2024-01-11T14:00:14;2.58;83.50
74940;HTU21D;63505;45.226;37.908;2024-01-11T14:02:40;2.61;83.48
74940;HTU21D;63505;45.226;37.908;2024-01-11T14:05:07;2.65;83.49
74940;HTU21D;63505;45.226;37.908;2024-01-11T14:07:38;2.69;83.46
74940;HTU21D;63505;45.226;37.908;2024-01-11T14:10:05;2.69;83.45
74940;HTU21D;63505;45.226;37.908;2024-01-11T14:12:32;2.70;83.49
74940;HTU21D;63505;45.226;37.908;2024-01-11T14:14:58;2.72;83.49
74940;HTU21D;63505;45.226;37.908;2024-01-11T14:17:25;2.73;83.52
74940;HTU21D;63505;45.226;37.908;2024-01-11T14:19:51;2.72;83.49
74940;HTU21D;63505;45.226;37.908;2024-01-11T14:22:17;2.72;83.54
74940;HTU21D;63505;45.226;37.908;2024-01-11T14:24:43;2.73;83.59
74940;HTU21D;63505;45.226;37.908;2024-01-11T14:27:10;2.73;83.61
74940;HTU21D;63505;45.226;37.908;2024-01-11T14:29:36;2.72;83.61
74940;HTU21D;63505;45.226;37.908;2024-01-11T14:32:02;2.71;83.65
74940;HTU21D;63505;45.226;37.908;2024-01-11T14:34:28;2.71;83.70
74940;HTU21D;63505;45.226;37.908;2024-01-11T14:36:54;2.68;83.65
74940;HTU21D;63505;45.226;37.908;2024-01-11T14:39:20;2.66;83.70
74940;HTU21D;63505;45.226;37.908;2024-01-11T14:41:49;2.59;83.71
74940;HTU21D;63505;45.226;37.908;2024-01-11T14:44:14;2.56;83.76
74940;HTU21D;63505;45.226;37.908;2024-01-11T14:46:40;2.52;83.78
74940;HTU21D;63505;45.226;37.908;2024-01-11T14:49:08;2.49;83.87
74940;HTU21D;63505;45.226;37.908;2024-01-11T14:51:34;2.47;83.94
74940;HTU21D;63505;45.226;37.908;2024-01-11T14:54:02;2.47;83.97
74940;HTU21D;63505;45.226;37.908;2024-01-11T14:56:30;2.47;84.00
74940;HTU21D;63505;45.226;37.908;2024-01-11T14:58:56;2.46;84.05
74940;HTU21D;63505;45.226;37.908;2024-01-11T15:01:22;2.46;84.10
74940;HTU21D;63505;45.226;37.908;2024-01-11T15:03:48;2.46;84.14
74940;HTU21D;63505;45.226;37.908;2024-01-11T15:06:14;2.47;84.18
74940;HTU21D;63505;45.226;37.908;2024-01-11T15:08:39;2.47;84.24
74940;HTU21D;63505;45.226;37.908;2024-01-11T15:11:05;2.49;84.28
74940;HTU21D;63505;45.226;37.908;2024-01-11T15:13:32;2.52;84.29
74940;HTU21D;63505;45.226;37.908;2024-01-11T15:15:59;2.52;84.32